Time;durP1;ratioP1;P1;durP2;ratioP2;P2;SDS_P1;SDS_P2;PMS_P1;PMS_P2;Temp;Humidity;BMP_temperature;BMP_pressure;BME280_temperature;BME280_humidity;BME280_pressure;Samples;Min_cycle;Max_cycle;Signal;HPM_P1;HPM_P2
2020/12/02 00:03:35;;;;;;;59.10;25.60;;;;;;;1.41;83.49;101348.55;3705072;78;35032;-82
2020/12/02 00:08:40;;;;;;;62.73;29.82;;;;;;;1.43;83.61;101346.34;3719913;78;98056;-82
2020/12/02 00:13:48;;;;;;;51.37;23.07;;;;;;;1.53;83.63;101354.90;3707346;77;98702;-83
2020/12/02 00:18:51;;;;;;;58.57;28.73;;;;;;;1.43;83.24;101369.39;3714291;78;34988;-82
2020/12/02 00:23:53;;;;;;;54.33;26.57;;;;;;;1.30;83.64;101348.45;3715202;77;98684;-82
2020/12/02 00:28:57;;;;;;;58.10;23.67;;;;;;;1.27;83.52;101344.16;3717161;78;35387;-82
2020/12/02 00:33:58;;;;;;;56.60;26.60;;;;;;;1.19;83.67;101347.52;3705106;77;98639;-83
2020/12/02 00:38:59;;;;;;;57.43;24.27;;;;;;;1.16;83.81;101356.25;3721012;78;35567;-82
2020/12/02 00:44:00;;;;;;;57.63;26.37;;;;;;;1.13;83.67;101354.92;3715419;78;98636;-82
2020/12/02 00:49:01;;;;;;;70.83;29.37;;;;;;;1.11;83.84;101353.03;3722038;78;35072;-82
2020/12/02 00:54:02;;;;;;;64.10;28.90;;;;;;;1.10;83.86;101360.13;3715164;77;98546;-82
2020/12/02 00:59:08;;;;;;;59.97;24.37;;;;;;;1.09;84.01;101361.23;3722789;77;35002;-83
2020/12/02 01:04:16;;;;;;;54.67;24.18;;;;;;;1.04;84.04;101359.37;3715939;77;98555;-83
2020/12/02 01:09:18;;;;;;;54.17;22.77;;;;;;;0.94;84.04;101362.78;3729405;78;35125;-82
2020/12/02 01:14:20;;;;;;;56.63;24.37;;;;;;;0.93;84.14;101357.11;3712900;78;98661;-81
2020/12/02 01:19:26;;;;;;;56.80;23.73;;;;;;;0.90;84.49;101351.72;3723085;78;34986;-81
2020/12/02 01:24:35;;;;;;;56.98;23.60;;;;;;;1.03;84.60;101352.34;3716737;78;98307;-81
2020/12/02 01:29:37;;;;;;;53.73;21.77;;;;;;;1.11;84.47;101359.02;3715945;78;34995;-81
2020/12/02 01:34:38;;;;;;;57.63;25.33;;;;;;;1.09;84.24;101342.26;3715298;78;98645;-82
2020/12/02 01:39:53;;;;;;;52.43;25.27;;;;;;;1.04;84.23;101345.82;3727286;78;35468;-82
2020/12/02 01:44:54;;;;;;;52.77;22.43;;;;;;;1.05;83.93;101343.93;3711752;78;98644;-81
2020/12/02 01:50:10;;;;;;;51.17;22.43;;;;;;;0.99;84.13;101345.89;3721491;78;35037;-81
2020/12/02 01:55:16;;;;;;;64.25;25.40;;;;;;;0.89;83.98;101335.74;3710764;78;98700;-81
2020/12/02 02:00:25;;;;;;;58.13;25.10;;;;;;;0.89;84.08;101332.47;3718930;78;26227;-81
2020/12/02 02:05:31;;;;;;;47.53;22.17;;;;;;;0.87;84.24;101329.78;3713439;78;98514;-80
2020/12/02 02:10:38;;;;;;;58.63;24.40;;;;;;;0.88;84.55;101332.78;3723956;78;26551;-81
2020/12/02 02:15:53;;;;;;;49.90;21.65;;;;;;;0.88;84.42;101326.00;3717361;77;98320;-81
2020/12/02 02:21:05;;;;;;;56.80;24.90;;;;;;;0.87;84.30;101323.83;3716136;78;34974;-80
2020/12/02 02:26:30;;;;;;;47.95;22.13;;;;;;;0.81;84.41;101326.34;3712518;78;98676;-81
2020/12/02 02:31:40;;;;;;;50.37;22.07;;;;;;;0.77;84.48;101323.95;3726284;77;35007;-81
2020/12/02 02:36:41;;;;;;;51.50;24.37;;;;;;;0.76;84.56;101339.14;3707460;74;98308;-81
2020/12/02 02:41:42;;;;;;;51.37;22.67;;;;;;;0.74;84.62;101335.92;3733335;77;34990;-81
2020/12/02 02:46:43;;;;;;;68.47;28.10;;;;;;;0.67;84.53;101340.33;3803087;76;98586;-82
2020/12/02 02:51:44;;;;;;;49.43;23.13;;;;;;;0.67;84.65;101336.27;3818307;76;35531;-82
2020/12/02 02:56:45;;;;;;;56.57;25.50;;;;;;;0.64;84.78;101337.40;3801826;76;98324;-81
2020/12/02 03:01:46;;;;;;;53.10;24.10;;;;;;;0.62;84.83;101337.68;3804512;77;35822;-82
2020/12/02 03:06:47;;;;;;;54.03;23.20;;;;;;;0.65;84.87;101333.05;3795320;76;98346;-81
2020/12/02 03:11:51;;;;;;;51.20;21.90;;;;;;;0.58;84.46;101335.31;3810261;76;34950;-81
2020/12/02 03:16:55;;;;;;;57.53;24.40;;;;;;;0.51;84.95;101328.63;3804470;76;98331;-80
2020/12/02 03:22:01;;;;;;;59.07;26.63;;;;;;;0.53;84.98;101334.02;3816299;76;34960;-81
2020/12/02 03:27:03;;;;;;;57.88;25.37;;;;;;;0.58;84.79;101331.25;3803745;76;98373;-81
2020/12/02 03:32:03;;;;;;;55.07;24.63;;;;;;;0.55;84.62;101326.40;3817011;76;34976;-81
2020/12/02 03:37:04;;;;;;;54.97;23.43;;;;;;;0.46;84.88;101320.55;3803470;76;98297;-81
2020/12/02 03:42:06;;;;;;;58.50;25.60;;;;;;;0.47;84.90;101315.39;3810535;76;35005;-81
2020/12/02 03:47:08;;;;;;;58.57;27.93;;;;;;;0.34;85.03;101319.59;3808653;76;98193;-80
2020/12/02 03:52:09;;;;;;;54.80;25.30;;;;;;;0.24;85.08;101316.99;3813764;76;35288;-80
2020/12/02 03:57:10;;;;;;;56.77;25.30;;;;;;;0.19;85.46;101315.72;3811188;76;98380;-81
2020/12/02 04:02:11;;;;;;;59.30;26.80;;;;;;;0.20;85.26;101317.33;3802559;76;34985;-81
2020/12/02 04:07:12;;;;;;;59.60;25.27;;;;;;;0.20;85.26;101317.33;3806328;75;98286;-80
2020/12/02 04:12:12;;;;;;;67.50;26.67;;;;;;;0.20;85.38;101311.09;3812578;76;34959;-81
2020/12/02 04:17:13;;;;;;;64.13;30.37;;;;;;;0.20;85.56;101317.33;3800048;75;98459;-81
2020/12/02 04:22:14;;;;;;;58.27;28.50;;;;;;;0.14;85.35;101323.07;3810278;76;34985;-81
2020/12/02 04:27:18;;;;;;;64.63;28.03;;;;;;;0.03;85.49;101312.91;3809235;76;98387;-81
2020/12/02 04:32:19;;;;;;;53.70;25.57;;;;;;;-0.05;85.74;101315.43;3818525;76;32660;-81
2020/12/02 04:37:20;;;;;;;59.70;29.03;;;;;;;-0.02;85.78;101324.87;3810411;76;98600;-80
2020/12/02 04:42:34;;;;;;;57.23;27.10;;;;;;;-0.07;85.72;101327.88;3811755;76;32786;-80
2020/12/02 04:47:40;;;;;;;60.33;28.35;;;;;;;-0.06;85.99;101327.31;3767142;76;98515;-80
2020/12/02 04:53:04;;;;;;;58.40;27.40;;;;;;;-0.07;85.89;101325.70;3775673;76;32637;-80
2020/12/02 04:58:20;;;;;;;65.70;27.50;;;;;;;-0.06;85.84;101324.08;3761872;76;98364;-80
2020/12/02 05:03:23;;;;;;;60.37;26.37;;;;;;;-0.10;86.14;101330.35;3767733;76;32749;-81
2020/12/02 05:08:29;;;;;;;56.28;26.52;;;;;;;-0.13;85.93;101329.55;3733115;77;98677;-80
2020/12/02 05:13:30;;;;;;;58.58;26.52;;;;;;;-0.18;86.03;101345.83;3761195;76;26090;-80
2020/12/02 05:18:31;;;;;;;68.07;30.73;;;;;;;-0.16;86.34;101342.31;3767148;77;98397;-80
2020/12/02 05:23:32;;;;;;;60.47;28.60;;;;;;;-0.22;86.26;101339.92;3757949;76;32711;-80
2020/12/02 05:28:40;;;;;;;62.17;28.27;;;;;;;-0.27;86.20;101338.08;3765672;76;98376;-80
2020/12/02 05:33:41;;;;;;;65.67;29.37;;;;;;;-0.30;86.50;101326.46;3759949;75;99043;-80
2020/12/02 05:38:51;;;;;;;61.97;28.83;;;;;;;-0.37;86.27;101331.39;3768698;76;33126;-80
2020/12/02 05:44:06;;;;;;;65.30;29.07;;;;;;;-0.45;86.58;101340.66;3772254;76;98433;-80
2020/12/02 05:49:12;;;;;;;61.03;27.37;;;;;;;-0.47;86.71;101334.70;3801436;76;32652;-81
2020/12/02 05:54:16;;;;;;;69.50;31.95;;;;;;;-0.60;86.76;101338.84;3803417;76;98747;-80
2020/12/02 05:59:22;;;;;;;64.80;29.87;;;;;;;-0.61;87.08;101339.16;3812019;76;32696;-80
2020/12/02 06:04:21;;;;;;;72.03;29.03;;;;;;;-0.70;86.85;101340.83;3798941;76;98721;-80
2020/12/02 06:09:42;;;;;;;74.40;33.00;;;;;;;-0.76;87.08;101341.41;3815048;76;32716;-79
2020/12/02 06:14:44;;;;;;;67.15;29.50;;;;;;;-0.79;87.31;101334.38;3803170;76;98472;-79
2020/12/02 06:19:50;;;;;;;75.73;32.97;;;;;;;-0.80;87.37;101334.95;3812765;76;33081;-80
2020/12/02 06:24:51;;;;;;;66.72;31.20;;;;;;;-0.91;87.33;101332.58;3804580;75;98600;-78
2020/12/02 06:30:12;;;;;;;72.17;33.73;;;;;;;-0.84;87.61;101331.71;3812373;76;33586;-79
2020/12/02 06:35:20;;;;;;;71.97;29.67;;;;;;;-0.87;87.45;101330.41;3808150;76;98702;-78
2020/12/02 06:40:21;;;;;;;67.97;31.77;;;;;;;-0.91;87.50;101347.44;3813875;76;28848;-79
2020/12/02 06:45:34;;;;;;;70.17;33.13;;;;;;;-0.89;87.67;101337.97;3784818;76;98731;-78
2020/12/02 06:50:36;;;;;;;69.63;29.97;;;;;;;-0.82;87.44;101329.56;3772991;76;33424;-78
2020/12/02 06:55:38;;;;;;;71.93;32.70;;;;;;;-0.81;87.50;101337.92;3763416;76;98730;-77
2020/12/02 07:00:56;;;;;;;70.03;32.10;;;;;;;-0.89;87.37;101329.86;3738590;76;33061;-77
2020/12/02 07:06:27;;;;;;;75.67;33.20;;;;;;;-0.87;87.60;101330.41;3753410;76;98499;-77
2020/12/02 07:11:32;;;;;;;69.47;30.53;;;;;;;-0.92;87.50;101344.47;3755888;77;32697;-77
2020/12/02 07:16:38;;;;;;;72.47;34.03;;;;;;;-0.93;87.79;101345.00;3753328;76;98796;-78
2020/12/02 07:22:02;;;;;;;71.00;31.13;;;;;;;-0.94;87.69;101343.39;3759598;77;25983;-79
2020/12/02 07:27:07;;;;;;;66.12;30.12;;;;;;;-0.96;87.52;101340.70;3752793;76;98665;-78
2020/12/02 07:32:17;;;;;;;85.27;34.47;;;;;;;-1.01;87.59;101332.63;3726833;76;32771;-78
2020/12/02 07:37:20;;;;;;;81.42;34.92;;;;;;;-1.03;87.72;101332.11;3730072;77;98557;-77
2020/12/02 07:42:40;;;;;;;75.87;32.90;;;;;;;-1.11;87.70;101329.44;3751144;76;32687;-79
2020/12/02 07:47:52;;;;;;;71.92;32.30;;;;;;;-1.09;88.09;101326.47;3713554;77;98529;-80
2020/12/02 07:53:32;;;;;;;77.30;34.67;;;;;;;-1.05;87.96;101313.47;3698657;78;32730;-80
2020/12/02 07:58:37;;;;;;;74.87;32.53;;;;;;;-1.05;87.68;101326.19;3699706;78;98112;-77
2020/12/02 08:03:43;;;;;;;72.87;30.40;;;;;;;-0.98;87.83;101325.33;3709079;78;98840;-77
2020/12/02 08:08:46;;;;;;;72.37;32.63;;;;;;;-0.97;87.64;101318.30;3711962;78;26175;-77
2020/12/02 08:13:57;;;;;;;83.03;37.30;;;;;;;-0.99;87.74;101312.35;3700616;78;98852;-76
2020/12/02 08:18:59;;;;;;;72.30;32.80;;;;;;;-0.87;87.75;101309.32;3680487;78;32642;-77
2020/12/02 08:24:36;;;;;;;81.40;35.90;;;;;;;-0.83;87.42;101310.38;3698841;78;98433;-77
2020/12/02 08:29:44;;;;;;;85.97;36.90;;;;;;;-0.86;87.38;101303.64;3665748;78;26398;-80
2020/12/02 08:34:46;;;;;;;83.23;36.20;;;;;;;-0.92;87.48;101306.12;3709425;78;98937;-81
2020/12/02 08:39:52;;;;;;;80.73;34.40;;;;;;;-0.87;87.62;101301.22;3708299;78;32593;-78
2020/12/02 08:45:19;;;;;;;75.43;35.10;;;;;;;-0.84;87.46;101300.11;3730858;76;98680;-80
2020/12/02 08:50:26;;;;;;;;;;;;;;;-0.73;87.20;101309.76;3816291;76;26314;-79
2020/12/02 08:55:29;;;;;;;84.77;38.05;;;;;;;-0.74;87.31;101305.45;3804649;76;84574;-78
2020/12/02 09:00:34;;;;;;;81.17;35.93;;;;;;;-0.74;87.31;101305.45;3811820;76;32647;-78
2020/12/02 09:05:37;;;;;;;81.37;37.00;;;;;;;-0.63;87.30;101306.98;3762011;76;98842;-78
2020/12/02 09:10:42;;;;;;;73.77;34.60;;;;;;;-0.59;86.90;101299.94;3818613;76;32696;-79
2020/12/02 09:15:46;;;;;;;75.10;36.47;;;;;;;-0.54;86.53;101303.14;3797453;75;98746;-79
2020/12/02 09:20:47;;;;;;;78.03;36.00;;;;;;;-0.53;86.69;101277.71;3808263;76;32642;-79
2020/12/02 09:25:55;;;;;;;84.57;33.70;;;;;;;-0.44;86.58;101290.33;3764892;76;98462;-79
2020/12/02 09:30:56;;;;;;;81.37;36.30;;;;;;;-0.31;86.54;101287.78;3812754;76;32669;-79
2020/12/02 09:35:57;;;;;;;85.23;39.10;;;;;;;-0.34;85.86;101284.05;3780343;76;98478;-79
2020/12/02 09:41:06;;;;;;;77.60;35.53;;;;;;;-0.38;86.05;101276.23;3794026;76;33604;-79
2020/12/02 09:46:21;;;;;;;79.60;37.17;;;;;;;-0.31;86.77;101278.88;3619131;79;98772;-81
2020/12/02 09:51:27;;;;;;;75.33;35.30;;;;;;;-0.26;85.69;101276.12;3680040;79;33311;-79
2020/12/02 09:56:31;;;;;;;83.22;38.38;;;;;;;-0.27;86.09;101263.14;3706897;77;98478;-79
2020/12/02 10:02:02;;;;;;;75.07;34.77;;;;;;;-0.18;85.79;101257.13;3719004;77;32724;-79
2020/12/02 10:07:23;;;;;;;77.62;35.75;;;;;;;-0.22;85.55;101253.37;3710687;77;98729;-79
2020/12/02 10:12:39;;;;;;;78.20;35.10;;;;;;;-0.37;85.31;101256.21;3722943;77;32815;-79
2020/12/02 10:32:49;;;;;;;82.17;42.73;;;;;;;0.34;84.60;101243.00;3757882;76;35979;-79
2020/12/02 10:37:57;;;;;;;82.03;36.37;;;;;;;0.11;84.12;101238.41;3714951;77;98437;-78
2020/12/02 10:43:20;;;;;;;79.07;37.53;;;;;;;-0.02;84.27;101235.58;3721514;78;26545;-77
2020/12/02 10:48:26;;;;;;;76.53;34.23;;;;;;;0.01;84.86;101218.22;3706891;78;98315;-79
2020/12/02 10:53:27;;;;;;;81.97;35.52;;;;;;;0.08;85.08;101220.02;3729792;78;25836;-78
2020/12/02 10:58:31;;;;;;;80.60;36.80;;;;;;;0.15;85.06;101213.70;3707959;78;98511;-79
2020/12/02 11:03:39;;;;;;;81.23;35.63;;;;;;;0.24;85.07;101210.06;3730824;77;26805;-78
2020/12/02 11:09:25;;;;;;;87.70;37.40;;;;;;;0.26;84.87;101197.60;3760716;77;26031;-79
2020/12/02 11:14:54;;;;;;;82.53;36.27;;;;;;;0.16;84.14;101201.25;3743745;77;98853;-79
2020/12/02 11:20:03;;;;;;;82.50;40.23;;;;;;;0.06;84.73;101190.54;3701284;78;25826;-79
2020/12/02 11:25:18;;;;;;;80.55;37.25;;;;;;;0.00;84.62;101180.09;3704509;77;99006;-79
2020/12/02 11:30:37;;;;;;;78.13;32.17;;;;;;;0.16;84.56;101174.19;3735382;76;35456;-80
2020/12/02 11:36:08;;;;;;;76.93;32.90;;;;;;;0.14;84.51;101164.74;3691039;77;98750;-79
2020/12/02 11:41:17;;;;;;;79.53;33.87;;;;;;;0.04;84.41;101154.86;3699831;78;26003;-79
2020/12/02 11:46:20;;;;;;;75.50;35.08;;;;;;;0.08;84.56;101151.02;3690018;78;98689;-79
2020/12/02 11:51:33;;;;;;;79.83;34.23;;;;;;;0.01;84.33;101154.64;3727221;77;35614;-78
2020/12/02 11:56:51;;;;;;;76.93;32.57;;;;;;;0.04;84.79;101152.69;3681777;77;98643;-79
2020/12/02 12:02:04;;;;;;;79.40;34.90;;;;;;;0.02;84.29;101150.27;3570018;81;35640;-78
2020/12/02 12:07:54;;;;;;;70.10;30.48;;;;;;;-0.01;84.88;101141.92;3567035;79;98695;-80
2020/12/02 12:13:38;;;;;;;85.33;37.17;;;;;;;-0.01;84.88;101141.92;3595743;80;35644;-78
2020/12/02 12:18:44;;;;;;;80.50;35.17;;;;;;;-0.04;84.90;101139.25;3575242;81;35657;-79
2020/12/02 12:24:00;;;;;;;79.75;33.98;;;;;;;-0.05;84.67;101127.39;3544155;80;98499;-79
2020/12/02 12:29:03;;;;;;;84.90;38.13;;;;;;;-0.16;84.48;101125.34;3512303;80;35433;-79
2020/12/02 12:34:27;;;;;;;75.15;33.90;;;;;;;-0.33;84.69;101119.34;3559329;80;98691;-78
2020/12/02 12:39:34;;;;;;;81.83;35.33;;;;;;;-0.37;85.19;101115.59;3636109;79;35664;-79
2020/12/02 12:44:36;;;;;;;;;;;;;;;-0.37;85.39;101112.89;3661769;79;98569;-78
2020/12/02 12:49:37;;;;;;;71.10;32.73;;;;;;;-0.32;84.84;101106.07;3736000;77;25991;-78
2020/12/02 12:54:38;;;;;;;79.63;32.67;;;;;;;-0.32;85.24;101100.12;3723320;77;98705;-77
2020/12/02 12:59:40;;;;;;;76.53;30.30;;;;;;;-0.36;85.19;101102.58;3742339;77;34974;-79
2020/12/02 13:04:41;;;;;;;74.30;31.03;;;;;;;-0.32;85.08;101087.96;3609826;80;98935;-78
2020/12/02 13:09:52;;;;;;;77.93;33.37;;;;;;;-0.37;85.13;101092.86;3550113;81;35194;-79
2020/12/02 13:15:15;;;;;;;76.67;31.23;;;;;;;-0.30;85.46;101099.28;3559721;80;99176;-79
2020/12/02 13:20:57;;;;;;;72.97;29.30;;;;;;;-0.28;85.04;101088.18;3642483;78;35074;-81
2020/12/02 13:26:12;;;;;;;81.10;31.43;;;;;;;-0.37;84.99;101094.21;3698510;77;97905;-79
2020/12/02 13:31:21;;;;;;;73.03;31.77;;;;;;;-0.42;85.40;101079.14;3742420;77;35453;-79
2020/12/02 13:36:31;;;;;;;86.20;33.58;;;;;;;-0.42;85.60;101076.44;3694846;78;98756;-79
2020/12/02 13:41:45;;;;;;;67.47;29.77;;;;;;;-0.40;85.36;101076.98;3696294;78;36142;-79
2020/12/02 13:46:53;;;;;;;72.73;30.23;;;;;;;-0.39;85.05;101065.06;3694688;78;98973;-78
2020/12/02 13:52:28;;;;;;;72.03;29.87;;;;;;;-0.40;85.38;101071.56;3703650;78;35072;-78
2020/12/02 13:57:47;;;;;;;77.67;32.97;;;;;;;-0.35;85.05;101061.48;3697111;78;98740;-78
2020/12/02 14:03:28;;;;;;;79.00;35.03;;;;;;;-0.43;85.35;101059.97;3705633;78;36176;-79
2020/12/02 14:08:28;;;;;;;84.67;35.10;;;;;;;-0.65;85.45;101035.36;3656290;79;98219;-78
2020/12/02 14:13:32;;;;;;;70.20;28.63;;;;;;;-0.65;85.45;101035.36;3643007;80;35038;-79
2020/12/02 14:18:33;;;;;;;80.50;33.30;;;;;;;-0.52;85.68;101048.98;3658641;79;98597;-76
2020/12/02 14:23:34;;;;;;;73.63;29.90;;;;;;;-0.58;85.77;101050.14;3701128;78;35056;-78
2020/12/02 14:28:35;;;;;;;82.63;31.37;;;;;;;-0.68;85.81;101048.90;3693639;76;98241;-79
2020/12/02 14:33:36;;;;;;;98.00;37.73;;;;;;;-0.71;85.73;101042.70;3706740;78;98612;-78
2020/12/02 14:38:37;;;;;;;77.47;32.23;;;;;;;-0.77;85.82;101031.70;3689308;78;35058;-79
2020/12/02 14:43:39;;;;;;;86.13;34.17;;;;;;;-0.80;85.83;101030.94;3682603;78;98888;-79
2020/12/02 14:48:41;;;;;;;81.67;33.47;;;;;;;-0.78;85.97;101025.25;3671704;79;34979;-79
2020/12/02 14:53:42;;;;;;;77.20;31.80;;;;;;;-0.89;86.09;101022.41;3663147;79;98757;-79
2020/12/02 14:59:11;;;;;;;78.73;30.50;;;;;;;-0.89;86.23;101019.14;3689194;78;34899;-80
2020/12/02 15:04:12;;;;;;;78.17;32.95;;;;;;;-0.96;86.55;101023.27;3660130;77;98490;-80
2020/12/02 15:09:25;;;;;;;83.43;34.10;;;;;;;-0.95;86.35;101011.37;3738793;77;35131;-78
2020/12/02 15:14:29;;;;;;;74.87;32.85;;;;;;;-0.89;86.74;101011.59;3714613;77;98533;-80
2020/12/02 15:19:31;;;;;;;71.13;30.50;;;;;;;-0.86;86.36;101016.41;3722036;78;35491;-79
2020/12/02 15:24:33;;;;;;;73.47;30.85;;;;;;;-0.89;86.43;101015.09;3712837;78;98494;-78
2020/12/02 15:29:36;;;;;;;74.03;32.53;;;;;;;-0.86;86.49;101020.46;3707435;78;35882;-79
2020/12/02 15:34:37;;;;;;;75.37;31.02;;;;;;;-0.84;86.31;101006.11;3679024;78;98414;-79
2020/12/02 15:39:59;;;;;;;79.47;35.27;;;;;;;-0.84;86.29;101001.52;3694132;78;35537;-77
2020/12/02 15:45:11;;;;;;;75.57;32.03;;;;;;;-0.87;86.17;100999.41;3681430;77;98780;-78
2020/12/02 15:50:28;;;;;;;80.13;29.80;;;;;;;-0.83;86.46;100994.23;3684579;78;26063;-78
2020/12/02 15:55:55;;;;;;;81.63;29.37;;;;;;;-0.81;86.03;100992.86;3705850;78;98744;-78
2020/12/02 16:00:58;;;;;;;72.42;29.70;;;;;;;-0.80;86.05;100989.59;3719195;77;26094;-78
2020/12/02 16:05:59;;;;;;;70.12;29.57;;;;;;;-0.91;85.91;100981.34;3742391;77;98535;-78
2020/12/02 16:11:06;;;;;;;65.70;27.47;;;;;;;-0.90;86.23;100974.84;3751419;77;35524;-77
2020/12/02 16:16:09;;;;;;;76.63;29.57;;;;;;;-0.82;86.02;100974.22;3733565;77;98478;-78
2020/12/02 16:21:48;;;;;;;79.23;32.53;;;;;;;-0.91;85.79;100980.81;3741548;78;34995;-78
2020/12/02 16:26:51;;;;;;;79.27;30.93;;;;;;;-1.02;85.83;100971.74;3739322;77;99395;-78
2020/12/02 16:31:54;;;;;;;67.67;30.17;;;;;;;-1.01;86.35;100969.30;3749024;77;35503;-77
2020/12/02 16:36:55;;;;;;;78.43;30.80;;;;;;;-0.97;86.14;100973.86;3755175;77;98444;-78
2020/12/02 16:42:24;;;;;;;79.73;33.17;;;;;;;-0.98;86.12;100965.50;3757755;77;35451;-77
2020/12/02 16:47:40;;;;;;;67.67;27.87;;;;;;;-0.85;86.19;100966.68;3750724;77;98374;-78
2020/12/02 16:52:46;;;;;;;70.03;29.57;;;;;;;-0.83;85.89;100968.00;3740662;77;35195;-78
2020/12/02 16:57:52;;;;;;;78.55;28.15;;;;;;;-0.79;85.68;100964.98;3747144;77;98501;-78
2020/12/02 17:03:13;;;;;;;64.32;28.12;;;;;;;-0.79;85.85;100969.58;3749196;77;26035;-77
2020/12/02 17:08:18;;;;;;;65.87;27.70;;;;;;;-0.81;85.98;100955.56;3751529;77;98436;-79
2020/12/02 17:13:42;;;;;;;83.60;33.40;;;;;;;-0.74;85.77;100960.05;3772349;77;34987;-79
2020/12/02 17:19:04;;;;;;;67.20;27.67;;;;;;;-0.75;86.07;100963.86;3751061;77;26071;-78
2020/12/02 17:24:28;;;;;;;86.32;35.35;;;;;;;-0.78;85.66;100944.97;3750973;77;98911;-77
2020/12/02 17:30:04;;;;;;;75.93;33.20;;;;;;;-0.73;85.88;100946.27;3755147;77;34964;-78
2020/12/02 17:35:19;;;;;;;66.92;29.70;;;;;;;-0.83;85.77;100932.88;3740019;77;98612;-79
2020/12/02 17:40:28;;;;;;;65.63;30.13;;;;;;;-0.90;85.74;100930.27;3649446;79;35390;-79
2020/12/02 17:45:42;;;;;;;61.40;27.00;;;;;;;-0.87;85.71;100929.70;3712020;77;98730;-78
2020/12/02 17:50:57;;;;;;;68.67;28.33;;;;;;;-0.92;85.72;100929.76;3673351;79;35399;-78
2020/12/02 17:56:09;;;;;;;59.67;26.47;;;;;;;-0.84;85.66;100925.05;3651947;79;98624;-78
2020/12/02 18:01:47;;;;;;;103.03;31.40;;;;;;;-0.78;85.76;100926.06;3666186;79;34971;-79
2020/12/02 18:07:00;;;;;;;59.38;26.42;;;;;;;-0.78;85.37;100919.87;3653416;79;98937;-79
2020/12/02 18:12:20;;;;;;;74.00;31.27;;;;;;;-0.78;85.66;100908.49;3647893;79;26082;-79
2020/12/02 18:17:44;;;;;;;66.23;26.53;;;;;;;-0.87;85.21;100913.48;3644342;79;98476;-79
2020/12/02 18:23:02;;;;;;;66.33;28.37;;;;;;;-0.91;85.67;100909.22;3616032;80;25999;-79
2020/12/02 18:28:15;;;;;;;65.22;28.42;;;;;;;-0.89;85.55;100898.13;3705273;77;98510;-78
2020/12/02 18:33:39;;;;;;;76.50;31.73;;;;;;;-0.90;85.56;100904.06;3754498;77;36044;-79
2020/12/02 18:39:21;;;;;;;67.23;28.73;;;;;;;-0.97;85.53;100901.45;3734515;77;27791;-76
2020/12/02 18:44:27;;;;;;;72.80;29.00;;;;;;;-0.91;85.80;100890.84;3726857;77;98736;-78
2020/12/02 18:49:48;;;;;;;65.47;27.17;;;;;;;-0.86;85.65;100904.28;3695353;79;26474;-79
2020/12/02 18:54:49;;;;;;;75.05;30.35;;;;;;;-0.92;85.38;100904.91;3675415;78;98350;-78
2020/12/02 18:59:50;;;;;;;64.27;28.60;;;;;;;-1.01;85.24;100905.28;3673426;78;35045;-78
2020/12/02 19:05:02;;;;;;;71.93;31.50;;;;;;;-1.05;85.81;100896.70;3667225;78;98635;-78
2020/12/02 19:10:10;;;;;;;64.27;27.03;;;;;;;-1.06;85.71;100898.59;3678147;78;34991;-78
2020/12/02 19:15:37;;;;;;;69.32;27.73;;;;;;;-1.03;85.65;100893.16;3663389;77;98639;-78
2020/12/02 19:21:15;;;;;;;55.93;22.60;;;;;;;-1.01;85.62;100898.53;3674671;78;26046;-79
2020/12/02 19:26:37;;;;;;;82.40;35.70;;;;;;;-1.04;85.47;100891.56;3670921;77;100931;-78
2020/12/02 19:32:05;;;;;;;67.57;30.27;;;;;;;-1.03;85.64;100894.51;3677530;78;35025;-80
2020/12/02 19:37:49;;;;;;;64.80;28.90;;;;;;;-1.03;85.35;100885.88;3642962;79;98423;-77
2020/12/02 19:43:13;;;;;;;66.73;26.53;;;;;;;-1.04;85.43;100889.64;3671696;78;35517;-79
2020/12/02 19:48:30;;;;;;;64.85;28.52;;;;;;;-1.09;85.14;100891.05;3665799;77;98697;-77
2020/12/02 19:53:46;;;;;;;85.77;41.83;;;;;;;-1.09;85.50;100883.52;3676039;78;35013;-78
2020/12/02 19:59:01;;;;;;;68.73;31.67;;;;;;;-1.14;85.09;100870.89;3660904;78;35046;-78
2020/12/02 20:04:16;;;;;;;68.40;27.67;;;;;;;-1.20;85.25;100867.96;3667244;78;98492;-79
2020/12/02 20:09:31;;;;;;;67.20;30.90;;;;;;;-1.21;84.99;100866.36;3672555;78;34951;-78
2020/12/02 20:14:56;;;;;;;62.25;27.98;;;;;;;-1.13;85.30;100846.83;3671081;76;98777;-79
2020/12/02 20:20:20;;;;;;;61.73;26.67;;;;;;;-1.10;84.85;100851.64;3632753;78;35006;-78
2020/12/02 20:25:32;;;;;;;60.93;25.03;;;;;;;-1.22;84.68;100839.11;3666050;77;98531;-79
2020/12/02 20:30:44;;;;;;;63.80;27.20;;;;;;;-1.19;84.87;100844.48;3667164;77;35055;-79
2020/12/02 20:35:46;;;;;;;58.73;24.03;;;;;;;-1.20;84.51;100839.61;3667524;78;98810;-79
2020/12/02 20:40:49;;;;;;;59.77;24.60;;;;;;;-1.24;84.80;100844.54;3694233;78;34940;-80
2020/12/02 20:45:53;;;;;;;71.57;29.40;;;;;;;-1.20;85.07;100840.17;3687143;78;98598;-78
2020/12/02 20:51:25;;;;;;;74.20;30.77;;;;;;;-1.28;84.56;100834.86;3708546;78;35556;-78
2020/12/02 20:56:46;;;;;;;58.83;25.87;;;;;;;-1.35;84.73;100846.57;3694217;78;98513;-77
2020/12/02 21:01:52;;;;;;;65.10;30.60;;;;;;;-1.41;85.14;100821.27;3665345;77;35052;-78
2020/12/02 21:06:59;;;;;;;66.92;27.58;;;;;;;-1.44;84.89;100807.80;3670746;78;98473;-77
2020/12/02 21:12:00;;;;;;;;;;;;;;;-1.48;85.01;100810.02;3682351;78;26333;-77
2020/12/02 21:17:05;;;;;;;63.10;26.17;;;;;;;-1.43;85.04;100802.65;3656994;77;84213;-76
2020/12/02 21:22:36;;;;;;;57.50;24.97;;;;;;;-1.44;85.02;100791.60;3655844;78;34955;-77
2020/12/02 21:27:57;;;;;;;55.10;25.30;;;;;;;-1.43;84.75;100785.11;3712387;78;98580;-77
2020/12/02 21:33:12;;;;;;;61.57;26.63;;;;;;;-1.42;84.71;100770.52;3679746;78;34999;-77
2020/12/02 21:38:42;;;;;;;59.50;24.50;;;;;;;-1.49;84.34;100764.67;3731606;77;98661;-79
2020/12/02 21:44:28;;;;;;;63.97;25.33;;;;;;;-1.60;84.54;100765.11;3728036;77;98958;-79
2020/12/02 21:50:01;;;;;;;54.97;22.50;;;;;;;-1.61;84.76;100772.92;3817643;76;34953;-79
2020/12/02 21:55:28;;;;;;;58.97;25.67;;;;;;;-1.49;85.02;100791.66;3808077;76;98701;-79
2020/12/02 22:00:34;;;;;;;54.63;23.20;;;;;;;-1.46;84.83;100783.53;3809836;76;34899;-78
2020/12/02 22:06:16;;;;;;;70.08;28.67;;;;;;;-1.43;84.54;100795.90;3811145;76;98488;-77
2020/12/02 22:11:37;;;;;;;67.37;29.97;;;;;;;-1.49;84.59;100788.17;3809897;76;35456;-79
2020/12/02 22:16:56;;;;;;;69.70;29.77;;;;;;;-1.72;84.80;100776.30;3813536;76;98806;-76
2020/12/02 22:22:20;;;;;;;59.90;25.27;;;;;;;-1.71;85.21;100779.81;3825914;76;34952;-75
2020/12/02 22:27:25;;;;;;;60.17;25.10;;;;;;;-1.60;85.35;100777.25;3776676;76;98432;-76
2020/12/02 22:33:04;;;;;;;60.83;24.80;;;;;;;-1.57;85.11;100784.22;3825391;76;35040;-76
2020/12/02 22:38:43;;;;;;;57.35;23.73;;;;;;;-1.54;84.98;100779.58;3812108;75;98322;-77
2020/12/02 22:44:10;;;;;;;61.03;25.10;;;;;;;-1.57;84.81;100772.08;3810626;76;107988;-78
2020/12/02 22:49:12;;;;;;;;;;;;;;;-1.55;84.85;100765.83;3821097;76;25950;-77
2020/12/02 22:54:16;;;;;;;61.70;26.33;;;;;;;-1.57;84.79;100751.02;3815269;75;85005;-77
2020/12/02 22:59:19;;;;;;;57.30;26.87;;;;;;;-1.54;84.85;100735.05;3820897;76;35049;-77
2020/12/02 23:04:21;;;;;;;57.40;23.17;;;;;;;-1.48;84.59;100734.45;3807890;76;98940;-77
2020/12/02 23:09:29;;;;;;;56.90;23.13;;;;;;;-1.51;84.37;100737.19;3819049;76;34975;-78
2020/12/02 23:14:54;;;;;;;52.58;23.18;;;;;;;-1.53;84.29;100712.92;3802727;76;98847;-77
2020/12/02 23:20:03;;;;;;;67.80;26.07;;;;;;;-1.66;84.21;100713.08;3811962;76;35442;-77
2020/12/02 23:25:05;;;;;;;66.10;28.05;;;;;;;-1.73;84.61;100696.98;3806083;75;98714;-78
2020/12/02 23:30:24;;;;;;;59.67;27.87;;;;;;;-1.80;84.35;100675.75;3817556;76;35071;-78
2020/12/02 23:35:27;;;;;;;60.00;23.93;;;;;;;-1.88;84.76;100681.80;3777112;76;99233;-77
2020/12/02 23:40:28;;;;;;;62.23;25.67;;;;;;;-1.90;84.97;100678.60;3787544;76;34976;-78
2020/12/02 23:45:56;;;;;;;63.33;23.93;;;;;;;-2.00;84.96;100673.86;3775460;76;98816;-78
2020/12/02 23:50:57;;;;;;;64.27;25.53;;;;;;;-2.09;85.28;100672.34;3756391;76;34925;-77
2020/12/02 23:56:05;;;;;;;60.63;25.73;;;;;;;-2.12;85.16;100668.08;3776982;76;98929;-77
